Time;durP1;ratioP1;P1;durP2;ratioP2;P2;SDS_P1;SDS_P2;PMS_P1;PMS_P2;Temp;Humidity;BMP_temperature;BMP_pressure;BME280_temperature;BME280_humidity;BME280_pressure;Samples;Min_cycle;Max_cycle;Signal;HPM_P1;HPM_P2
2021/11/03 00:01:14;;;;;;;17.33;10.82;;;;;;;11.73;53.61;98051.16;4978335;28;20034;-70
2021/11/03 00:03:42;;;;;;;22.98;12.25;;;;;;;11.75;54.71;98054.38;4977259;28;20034;-70
2021/11/03 00:06:08;;;;;;;16.75;11.15;;;;;;;11.90;53.92;98056.84;4974622;28;20193;-69
2021/11/03 00:08:34;;;;;;;17.17;10.48;;;;;;;11.96;52.69;98058.38;4979963;28;20031;-68
2021/11/03 00:11:00;;;;;;;16.48;9.00;;;;;;;11.80;52.36;98065.09;4979732;28;20061;-69
2021/11/03 00:13:27;;;;;;;15.32;9.43;;;;;;;11.79;52.52;98064.28;4975636;28;20129;-69
2021/11/03 00:15:55;;;;;;;15.25;9.10;;;;;;;11.77;52.78;98062.97;4975444;28;20030;-69
2021/11/03 00:18:21;;;;;;;17.70;10.27;;;;;;;11.75;54.00;98067.88;4983214;28;20473;-69
2021/11/03 00:20:47;;;;;;;23.70;13.15;;;;;;;11.80;53.65;98068.56;4985338;28;20030;-70
2021/11/03 00:23:13;;;;;;;18.13;12.27;;;;;;;11.78;53.36;98062.69;4978287;28;20404;-69
2021/11/03 00:25:40;;;;;;;24.85;13.00;;;;;;;11.75;54.30;98068.66;4977565;28;20038;-70
2021/11/03 00:28:07;;;;;;;23.70;13.35;;;;;;;11.74;54.59;98063.56;4985107;28;20512;-70
2021/11/03 00:30:34;;;;;;;21.60;12.73;;;;;;;11.58;54.61;98061.09;4980199;28;20046;-70
2021/11/03 00:33:01;;;;;;;20.15;12.20;;;;;;;11.95;54.79;98072.16;4977545;28;20039;-70
2021/11/03 00:35:27;;;;;;;24.75;12.13;;;;;;;11.88;54.83;98072.53;4987107;28;20112;-69
2021/11/03 00:37:52;;;;;;;22.00;12.25;;;;;;;11.93;55.10;98072.44;4978981;28;20074;-69
2021/11/03 00:40:18;;;;;;;22.02;11.75;;;;;;;12.03;54.80;98068.81;4980459;28;20120;-69
2021/11/03 00:42:43;;;;;;;14.35;9.93;;;;;;;11.96;54.52;98069.16;4981391;28;20030;-69
2021/11/03 00:45:12;;;;;;;17.15;9.40;;;;;;;12.06;54.49;98080.94;4981798;28;20436;-69
2021/11/03 00:47:38;;;;;;;21.25;10.13;;;;;;;11.65;55.77;98071.50;4980308;28;20030;-70
2021/11/03 00:50:05;;;;;;;17.13;8.43;;;;;;;11.95;55.31;98080.25;4977455;28;20062;-69
2021/11/03 00:52:31;;;;;;;13.65;7.18;;;;;;;12.09;55.16;98072.25;4977607;28;20038;-69
2021/11/03 00:54:56;;;;;;;11.23;6.50;;;;;;;12.19;54.38;98077.50;4976897;28;20094;-69
2021/11/03 00:57:22;;;;;;;13.88;7.57;;;;;;;12.21;54.92;98072.59;4978041;28;20046;-70
2021/11/03 00:59:47;;;;;;;8.95;6.50;;;;;;;12.35;53.45;98079.94;4975387;28;20046;-70
2021/11/03 01:02:14;;;;;;;11.23;6.07;;;;;;;12.40;53.34;98082.56;4975426;28;20041;-70
2021/11/03 01:04:40;;;;;;;8.60;5.13;;;;;;;12.35;52.99;98080.72;4981584;28;20680;-70
2021/11/03 01:07:06;;;;;;;7.43;5.30;;;;;;;12.24;53.51;98076.59;4976694;28;20035;-70
2021/11/03 01:09:31;;;;;;;13.75;5.55;;;;;;;12.26;54.27;98077.09;4976079;28;20041;-70
2021/11/03 01:11:57;;;;;;;12.43;5.05;;;;;;;12.16;53.43;98072.69;4958603;28;20042;-70
2021/11/03 01:14:23;;;;;;;12.63;5.13;;;;;;;12.14;53.09;98080.25;4978420;28;20034;-70
2021/11/03 01:16:48;;;;;;;10.27;5.70;;;;;;;12.08;54.36;98076.03;4984700;28;20039;-69
2021/11/03 01:19:14;;;;;;;13.82;6.13;;;;;;;12.01;54.53;98079.09;4975358;28;20042;-71
2021/11/03 01:21:41;;;;;;;11.50;6.15;;;;;;;12.00;54.65;98074.78;4980339;28;20480;-69
2021/11/03 01:24:07;;;;;;;13.27;6.50;;;;;;;11.94;54.57;98075.94;4982575;28;20042;-69
2021/11/03 01:26:34;;;;;;;9.40;5.70;;;;;;;12.14;54.53;98074.88;4985374;28;20034;-70
2021/11/03 01:29:00;;;;;;;11.77;6.00;;;;;;;12.26;54.36;98082.50;4976830;28;20448;-71
2021/11/03 01:31:25;;;;;;;15.18;6.30;;;;;;;12.34;54.73;98081.81;4976718;28;20035;-70
2021/11/03 01:33:52;;;;;;;9.45;5.25;;;;;;;12.59;54.08;98082.53;4975594;28;20035;-70
2021/11/03 01:36:18;;;;;;;16.33;5.75;;;;;;;12.64;53.95;98076.22;4973204;28;20039;-70
2021/11/03 01:38:43;;;;;;;10.35;5.50;;;;;;;12.76;53.93;98075.75;4979719;28;20088;-70
2021/11/03 01:41:09;;;;;;;10.63;5.05;;;;;;;12.85;53.50;98068.56;4975535;28;20038;-72
2021/11/03 01:43:45;;;;;;;8.50;5.13;;;;;;;12.99;53.24;98072.06;4980849;28;20057;-70
2021/11/03 01:46:24;;;;;;;11.38;5.25;;;;;;;12.99;53.54;98079.34;4977621;28;20097;-69
2021/11/03 01:48:55;;;;;;;8.35;5.07;;;;;;;13.06;53.69;98081.69;4978891;28;20042;-69
2021/11/03 01:51:39;;;;;;;9.57;4.80;;;;;;;13.05;53.88;98083.56;4976569;28;20030;-69
2021/11/03 01:54:08;;;;;;;13.17;4.87;;;;;;;13.04;54.19;98079.25;4981606;28;20121;-69
2021/11/03 01:56:36;;;;;;;8.35;4.68;;;;;;;13.13;53.78;98090.97;4977531;28;20728;-71
2021/11/03 01:59:12;;;;;;;9.02;4.70;;;;;;;13.22;53.69;98092.97;4977114;28;20062;-70
2021/11/03 02:01:38;;;;;;;7.22;4.80;;;;;;;13.24;54.03;98085.38;4983799;28;20051;-70
2021/11/03 02:04:04;;;;;;;8.82;5.40;;;;;;;13.43;53.68;98088.00;4979604;28;20504;-70
2021/11/03 02:06:31;;;;;;;8.40;4.78;;;;;;;13.64;53.28;98087.56;4981935;28;20034;-71
2021/11/03 02:08:57;;;;;;;8.25;4.63;;;;;;;13.69;53.21;98092.88;4975601;28;20485;-70
2021/11/03 02:11:24;;;;;;;12.10;4.90;;;;;;;13.52;53.81;98086.19;4975721;28;20042;-71
2021/11/03 02:13:51;;;;;;;12.88;5.30;;;;;;;13.51;53.98;98092.69;4982234;28;20031;-70
2021/11/03 02:16:19;;;;;;;9.43;5.15;;;;;;;13.59;53.71;98091.19;4981384;28;20120;-71
2021/11/03 02:18:47;;;;;;;12.45;5.35;;;;;;;13.48;54.56;98092.50;4969705;28;20037;-70
2021/11/03 02:21:21;;;;;;;7.97;4.60;;;;;;;13.64;53.90;98092.97;4975897;28;20125;-70
2021/11/03 02:24:09;;;;;;;9.40;4.80;;;;;;;13.70;53.59;98098.00;4984330;28;20068;-70
2021/11/03 02:26:39;;;;;;;14.52;5.63;;;;;;;13.67;54.19;98093.19;4984653;28;20039;-70
2021/11/03 02:29:07;;;;;;;10.82;5.03;;;;;;;13.84;53.28;98091.75;4985507;28;20064;-70
2021/11/03 02:31:42;;;;;;;10.50;4.80;;;;;;;13.75;53.55;98095.16;4983303;28;20070;-69
2021/11/03 02:34:11;;;;;;;8.15;4.03;;;;;;;13.85;53.07;98096.84;4978430;28;20165;-71
2021/11/03 02:36:51;;;;;;;11.13;4.47;;;;;;;13.91;52.95;98089.41;4977576;28;20047;-70
2021/11/03 02:39:22;;;;;;;9.52;4.05;;;;;;;13.99;52.41;98093.28;4984506;28;20034;-70
2021/11/03 02:41:48;;;;;;;8.23;3.85;;;;;;;13.84;53.01;98097.16;4972773;28;20056;-70
2021/11/03 02:44:15;;;;;;;7.45;3.88;;;;;;;13.85;53.08;98096.06;4972849;28;20045;-70
2021/11/03 02:46:42;;;;;;;13.68;4.13;;;;;;;13.61;53.78;98097.88;4975391;28;20030;-70
2021/11/03 02:49:08;;;;;;;8.52;4.30;;;;;;;13.71;53.00;98105.00;4978090;28;20810;-70
2021/11/03 02:51:38;;;;;;;7.32;4.00;;;;;;;13.65;53.27;98100.00;4983059;28;20120;-71
2021/11/03 02:54:10;;;;;;;7.38;4.00;;;;;;;13.61;53.08;98103.31;4985161;28;20046;-70
2021/11/03 02:56:40;;;;;;;6.55;4.22;;;;;;;13.58;52.89;98097.72;4990734;28;20265;-69
2021/11/03 02:59:08;;;;;;;10.32;4.60;;;;;;;13.50;53.81;98101.91;4983096;28;20041;-69
2021/11/03 03:01:39;;;;;;;14.40;4.85;;;;;;;13.40;54.16;98100.19;4983291;28;20056;-70
2021/11/03 03:04:13;;;;;;;9.15;5.05;;;;;;;13.59;53.58;98097.38;4979193;28;20116;-70
2021/11/03 03:06:40;;;;;;;10.73;4.05;;;;;;;13.58;53.19;98100.41;4986936;28;20046;-70
2021/11/03 03:09:06;;;;;;;9.32;4.70;;;;;;;13.52;53.66;98098.91;4984606;28;20038;-69
2021/11/03 03:11:34;;;;;;;8.45;5.38;;;;;;;13.43;54.35;98110.44;4980400;28;20038;-69
2021/11/03 03:14:00;;;;;;;7.50;4.75;;;;;;;13.60;53.92;98103.63;4985108;28;20125;-69
2021/11/03 03:16:26;;;;;;;9.85;5.15;;;;;;;13.68;53.55;98112.91;4977815;28;20118;-70
2021/11/03 03:18:51;;;;;;;9.85;4.93;;;;;;;13.71;53.68;98104.19;4984662;28;20070;-70
2021/11/03 03:21:19;;;;;;;8.07;4.82;;;;;;;13.72;53.46;98106.59;4977594;28;20061;-69
2021/11/03 03:23:45;;;;;;;25.17;4.85;;;;;;;13.68;53.61;98112.91;4987566;28;20041;-70
2021/11/03 03:26:12;;;;;;;10.93;4.10;;;;;;;13.65;53.54;98108.91;4989647;28;20030;-70
2021/11/03 03:28:39;;;;;;;10.30;4.78;;;;;;;13.72;53.54;98117.41;4976807;28;20584;-70
2021/11/03 03:31:06;;;;;;;7.13;3.95;;;;;;;13.72;53.54;98111.19;4992694;28;20959;-69
2021/11/03 03:33:32;;;;;;;9.98;4.03;;;;;;;13.67;54.36;98124.84;4973788;28;20031;-70
2021/11/03 03:35:58;;;;;;;8.65;4.22;;;;;;;13.80;54.70;98124.00;4980961;28;20065;-70
2021/11/03 03:38:24;;;;;;;13.50;4.55;;;;;;;13.95;54.30;98125.59;4983908;28;20038;-70
2021/11/03 03:40:49;;;;;;;7.90;4.03;;;;;;;14.01;53.65;98127.06;4983369;28;20030;-69
2021/11/03 03:43:15;;;;;;;12.30;3.80;;;;;;;14.02;54.51;98131.38;4991312;28;20041;-70
2021/11/03 03:45:41;;;;;;;7.75;4.18;;;;;;;14.09;53.66;98132.88;4995572;28;20092;-70
2021/11/03 03:48:07;;;;;;;8.85;4.28;;;;;;;14.04;54.29;98139.19;4983871;28;20089;-70
2021/11/03 03:50:33;;;;;;;9.07;3.80;;;;;;;13.94;54.35;98134.00;4993373;28;20030;-69
2021/11/03 03:52:59;;;;;;;10.13;3.90;;;;;;;13.98;54.89;98149.34;4991723;28;20168;-69
2021/11/03 03:55:25;;;;;;;9.23;3.53;;;;;;;14.16;54.41;98155.72;4986339;28;20109;-69
2021/11/03 03:57:51;;;;;;;21.25;4.97;;;;;;;13.95;54.99;98151.84;4990870;28;20144;-70
2021/11/03 04:00:19;;;;;;;9.82;3.90;;;;;;;14.35;54.40;98154.75;4989334;28;20412;-70
2021/11/03 04:02:46;;;;;;;9.85;3.60;;;;;;;14.45;53.73;98156.41;4981687;28;20037;-70
2021/11/03 04:05:14;;;;;;;8.90;3.60;;;;;;;14.49;53.73;98155.50;4979522;28;20042;-69
2021/11/03 04:07:40;;;;;;;9.68;3.80;;;;;;;14.35;54.17;98160.97;4997507;28;20038;-70
2021/11/03 04:10:07;;;;;;;10.52;4.07;;;;;;;14.46;53.46;98172.38;4987087;28;20575;-70
2021/11/03 04:12:33;;;;;;;12.32;4.07;;;;;;;13.95;54.97;98166.19;4987457;28;20121;-70
2021/11/03 04:14:59;;;;;;;9.98;3.58;;;;;;;14.38;53.85;98175.81;4987677;28;20050;-70
2021/11/03 04:17:24;;;;;;;6.40;3.63;;;;;;;14.16;54.05;98171.16;4987284;28;20070;-70
2021/11/03 04:22:16;;;;;;;6.03;3.25;;;;;;;14.74;53.00;98174.19;5276051;23;20619;-66
2021/11/03 04:24:42;;;;;;;8.18;3.10;;;;;;;14.76;52.61;98172.78;5022954;28;20045;-66
2021/11/03 04:27:08;;;;;;;6.80;3.17;;;;;;;14.66;52.90;98173.00;5033541;28;20029;-66
2021/11/03 04:29:33;;;;;;;6.03;2.97;;;;;;;14.72;52.68;98182.63;5041916;28;20675;-66
2021/11/03 04:31:59;;;;;;;9.20;2.85;;;;;;;14.69;52.93;98185.09;5027426;28;20455;-66
2021/11/03 04:34:25;;;;;;;4.15;2.80;;;;;;;14.62;53.13;98180.13;5039299;28;20530;-65
2021/11/03 04:36:51;;;;;;;5.63;3.15;;;;;;;14.83;52.50;98185.88;5030588;28;20397;-65
2021/11/03 04:39:17;;;;;;;11.60;3.42;;;;;;;14.63;52.75;98195.28;5026647;28;20470;-65
2021/11/03 04:41:42;;;;;;;7.15;2.78;;;;;;;14.72;52.37;98196.19;5028508;28;20075;-66
2021/11/03 04:44:08;;;;;;;6.28;3.15;;;;;;;14.69;52.35;98196.75;5029802;28;20029;-65
2021/11/03 04:46:34;;;;;;;6.70;2.90;;;;;;;14.77;52.63;98198.75;5029073;28;20179;-65
2021/11/03 04:49:00;;;;;;;6.20;2.75;;;;;;;14.76;52.21;98202.59;5030112;28;20124;-65
2021/11/03 04:51:26;;;;;;;5.70;2.75;;;;;;;14.39;52.71;98203.69;5027961;28;20528;-65
2021/11/03 04:53:51;;;;;;;5.53;2.95;;;;;;;14.76;52.64;98204.47;5030018;28;20080;-65
2021/11/03 04:56:21;;;;;;;5.10;3.38;;;;;;;14.73;52.14;98199.69;5027751;28;20034;-65
2021/11/03 04:58:51;;;;;;;5.20;2.75;;;;;;;14.25;53.42;98207.22;5029412;28;20087;-65
2021/11/03 05:01:20;;;;;;;6.40;2.72;;;;;;;14.77;52.47;98215.03;5030027;28;20037;-65
2021/11/03 05:03:45;;;;;;;6.63;2.58;;;;;;;14.67;52.57;98207.09;5029853;28;20226;-65
2021/11/03 05:06:13;;;;;;;2.90;2.30;;;;;;;14.64;52.91;98222.06;5029650;28;20033;-65
2021/11/03 05:08:39;;;;;;;7.38;2.75;;;;;;;14.66;52.48;98219.06;5029175;28;20029;-65
2021/11/03 05:11:05;;;;;;;5.60;3.05;;;;;;;14.38;53.40;98212.91;5030136;28;20246;-65
2021/11/03 05:13:30;;;;;;;3.47;2.40;;;;;;;14.17;53.75;98224.19;5027288;28;20033;-65
2021/11/03 05:15:56;;;;;;;5.55;2.60;;;;;;;14.40;52.98;98221.53;5029399;28;20029;-65
2021/11/03 05:18:21;;;;;;;9.07;3.03;;;;;;;14.38;53.37;98224.56;5027018;28;20040;-65
2021/11/03 05:20:47;;;;;;;13.80;3.40;;;;;;;14.61;52.61;98228.09;5030607;28;20032;-65
2021/11/03 05:23:13;;;;;;;7.93;3.08;;;;;;;14.55;53.08;98233.94;4995697;28;20041;-65
2021/11/03 05:25:39;;;;;;;4.35;2.55;;;;;;;14.75;52.56;98241.63;5017440;28;20116;-65
2021/11/03 05:28:04;;;;;;;12.15;3.33;;;;;;;14.63;52.78;98236.72;5010440;28;20112;-65
2021/11/03 05:30:30;;;;;;;5.30;3.03;;;;;;;14.59;53.47;98249.28;5000045;28;20042;-65
2021/11/03 05:32:57;;;;;;;7.00;3.25;;;;;;;14.56;53.37;98255.31;5014325;28;20037;-65
2021/11/03 05:35:24;;;;;;;116.38;7.38;;;;;;;14.42;54.13;98255.34;5008709;28;20467;-65
2021/11/03 05:37:49;;;;;;;9.45;4.10;;;;;;;13.92;55.80;98248.00;4993981;28;20030;-65
2021/11/03 05:40:19;;;;;;;14.40;4.30;;;;;;;14.44;54.92;98258.56;5007707;28;20376;-65
2021/11/03 05:42:45;;;;;;;25.42;4.78;;;;;;;14.25;55.72;98257.91;5007092;28;20049;-64
2021/11/03 05:45:11;;;;;;;9.70;4.70;;;;;;;17.93;45.69;98256.53;5004212;28;20042;-66
2021/11/03 05:47:37;;;;;;;7.57;4.00;;;;;;;18.47;44.57;98250.47;5009642;28;20088;-66
2021/11/03 05:50:05;;;;;;;9.82;4.43;;;;;;;18.34;44.51;98257.75;5012815;28;20036;-66
2021/11/03 05:52:31;;;;;;;7.20;4.30;;;;;;;18.74;43.45;98251.06;5004371;28;20076;-66
2021/11/03 05:54:56;;;;;;;10.15;4.68;;;;;;;19.22;42.51;98259.00;5013241;28;20041;-66
2021/11/03 05:57:27;;;;;;;9.68;4.40;;;;;;;18.88;42.96;98253.53;5009760;28;20042;-67
2021/11/03 05:59:53;;;;;;;13.25;4.90;;;;;;;19.21;42.24;98254.66;5004642;28;20038;-67
2021/11/03 06:02:21;;;;;;;6.57;3.92;;;;;;;19.48;41.71;98256.00;5000693;28;20143;-67
2021/11/03 06:04:47;;;;;;;8.65;3.75;;;;;;;19.36;41.86;98266.88;5012621;28;20056;-67
2021/11/03 06:07:14;;;;;;;11.68;5.00;;;;;;;19.32;41.89;98264.03;5007156;28;20499;-67
2021/11/03 06:09:40;;;;;;;7.55;4.30;;;;;;;18.80;42.75;98255.19;5005404;28;20030;-67
2021/11/03 06:12:07;;;;;;;7.80;3.40;;;;;;;18.97;42.68;98265.19;5003548;28;20506;-67
2021/11/03 06:14:32;;;;;;;10.75;3.60;;;;;;;18.70;43.37;98263.75;5002582;28;20165;-67
2021/11/03 06:16:58;;;;;;;6.78;3.15;;;;;;;18.63;43.31;98264.31;5003703;28;20125;-67
2021/11/03 06:19:25;;;;;;;4.68;3.08;;;;;;;18.55;43.51;98271.41;4999656;28;20045;-67
2021/11/03 06:21:52;;;;;;;7.32;3.42;;;;;;;18.75;43.28;98273.69;4995477;28;20498;-67
2021/11/03 06:24:17;;;;;;;7.72;3.58;;;;;;;18.82;43.01;98271.22;5011904;28;20033;-67
2021/11/03 06:26:43;;;;;;;5.20;3.40;;;;;;;18.82;42.93;98277.47;5003362;28;20030;-68
2021/11/03 06:29:09;;;;;;;5.65;3.33;;;;;;;18.61;43.20;98273.94;4999029;28;20037;-68
2021/11/03 06:31:35;;;;;;;6.22;3.42;;;;;;;18.92;42.50;98276.28;5012163;28;20539;-69
2021/11/03 06:34:02;;;;;;;29.42;4.47;;;;;;;18.94;42.60;98286.84;5010722;28;20021;-70
2021/11/03 06:36:28;;;;;;;7.03;4.68;;;;;;;19.32;41.86;98294.03;5002084;28;20042;-70
2021/11/03 06:38:54;;;;;;;8.20;3.13;;;;;;;19.45;41.47;98287.50;5008109;28;20044;-67
2021/11/03 06:41:20;;;;;;;5.47;3.22;;;;;;;19.26;41.55;98289.94;5011903;28;20033;-67
2021/11/03 06:43:46;;;;;;;4.50;3.10;;;;;;;19.43;41.63;98291.72;5012650;28;20061;-67
2021/11/03 06:46:13;;;;;;;6.82;3.50;;;;;;;19.38;41.48;98294.66;5011649;28;20061;-67
2021/11/03 06:48:39;;;;;;;6.30;3.40;;;;;;;19.48;41.20;98296.94;5014862;28;20033;-68
2021/11/03 06:51:06;;;;;;;5.78;2.55;;;;;;;19.70;40.76;98300.41;5020398;28;20504;-68
2021/11/03 06:53:33;;;;;;;10.20;3.03;;;;;;;20.01;40.22;98304.56;5017246;28;20070;-68
2021/11/03 06:55:59;;;;;;;5.53;3.15;;;;;;;19.77;40.53;98306.09;5003178;28;20040;-68
2021/11/03 06:58:25;;;;;;;4.80;2.92;;;;;;;19.74;40.50;98302.13;5009093;28;20041;-68
2021/11/03 07:00:53;;;;;;;7.57;2.90;;;;;;;19.56;41.12;98303.47;5006504;28;20042;-69
2021/11/03 07:03:21;;;;;;;5.22;2.88;;;;;;;18.87;42.45;98295.56;5005074;28;20034;-69
2021/11/03 07:05:47;;;;;;;7.18;2.67;;;;;;;18.71;42.66;98296.16;5008383;28;20030;-70
2021/11/03 07:08:14;;;;;;;16.90;11.90;;;;;;;19.19;42.10;98304.16;5007022;28;20041;-69
2021/11/03 07:10:44;;;;;;;3.83;2.38;;;;;;;18.72;42.81;98305.94;5007648;28;20026;-69
2021/11/03 07:13:09;;;;;;;8.90;3.38;;;;;;;19.03;42.09;98303.94;5003132;28;20026;-70
2021/11/03 07:15:35;;;;;;;6.50;3.03;;;;;;;19.28;41.69;98315.78;4998298;28;20053;-69
2021/11/03 07:18:03;;;;;;;5.63;4.18;;;;;;;18.56;42.86;98311.19;5002143;28;20113;-69
2021/11/03 07:20:28;;;;;;;4.43;2.30;;;;;;;17.25;45.91;98318.72;5001755;28;20040;-68
2021/11/03 07:22:54;;;;;;;7.78;6.20;;;;;;;17.25;46.57;98318.72;5004924;28;20703;-68
2021/11/03 07:25:23;;;;;;;6.05;3.80;;;;;;;17.47;46.20;98318.81;5009412;28;20064;-68
2021/11/03 07:27:51;;;;;;;5.70;2.88;;;;;;;17.42;46.25;98326.03;4998917;28;20038;-68
2021/11/03 07:30:20;;;;;;;9.30;5.22;;;;;;;16.92;47.55;98326.53;4996646;28;20030;-68
2021/11/03 07:32:45;;;;;;;7.65;3.55;;;;;;;16.90;47.42;98335.00;5001983;28;20034;-68
2021/11/03 07:35:11;;;;;;;9.27;5.55;;;;;;;16.91;47.69;98338.50;5001649;28;20038;-68
2021/11/03 07:37:38;;;;;;;7.13;5.07;;;;;;;16.42;48.58;98341.31;5001209;28;20053;-67
2021/11/03 07:40:07;;;;;;;10.38;4.45;;;;;;;17.11;47.06;98342.56;5006378;28;20041;-67
2021/11/03 07:42:34;;;;;;;39.65;23.92;;;;;;;16.67;48.25;98347.94;4999012;28;20383;-67
2021/11/03 07:44:59;;;;;;;12.85;7.43;;;;;;;16.75;47.77;98351.75;4997101;28;20657;-67
2021/11/03 07:47:24;;;;;;;50.20;31.80;;;;;;;16.19;49.45;98355.81;4996183;28;20038;-67
2021/11/03 07:49:50;;;;;;;38.42;25.90;;;;;;;16.89;47.77;98362.50;5001512;28;20041;-67
2021/11/03 07:52:16;;;;;;;5.35;2.75;;;;;;;16.79;47.72;98364.41;4996835;28;20037;-67
2021/11/03 07:54:42;;;;;;;14.68;6.68;;;;;;;16.67;48.09;98367.75;4995758;28;20605;-68
2021/11/03 07:57:08;;;;;;;19.17;13.00;;;;;;;17.05;47.08;98365.59;4998372;28;20038;-67
2021/11/03 07:59:34;;;;;;;3.58;2.70;;;;;;;16.32;48.64;98369.59;5002516;28;20031;-67
2021/11/03 08:02:00;;;;;;;6.95;3.75;;;;;;;16.37;48.65;98375.66;5003128;28;20041;-67
2021/11/03 08:04:44;;;;;;;6.70;3.60;;;;;;;16.12;49.49;98388.03;5001453;28;20041;-66
2021/11/03 08:07:11;;;;;;;7.28;6.57;;;;;;;16.55;48.38;98383.88;4998651;28;20386;-66
2021/11/03 08:09:43;;;;;;;7.57;3.63;;;;;;;16.18;48.92;98383.25;5001578;28;20037;-66
2021/11/03 08:12:10;;;;;;;13.68;3.60;;;;;;;15.64;50.32;98397.66;5004336;28;20061;-66
2021/11/03 08:14:36;;;;;;;23.05;17.63;;;;;;;15.84;49.85;98395.53;4997996;28;20057;-66
2021/11/03 08:17:02;;;;;;;7.80;2.58;;;;;;;15.90;49.60;98395.13;5001311;28;20042;-67
2021/11/03 08:19:36;;;;;;;8.10;1.90;;;;;;;15.22;51.62;98404.03;5001922;28;20045;-66
2021/11/03 08:22:03;;;;;;;3.00;2.15;;;;;;;15.70;50.83;98409.16;5001544;28;20117;-67
2021/11/03 08:24:29;;;;;;;6.05;2.03;;;;;;;15.55;50.75;98402.22;5000721;28;20046;-67
2021/11/03 08:26:55;;;;;;;3.92;1.80;;;;;;;15.58;50.43;98407.81;5000942;28;20076;-67
2021/11/03 08:29:23;;;;;;;7.05;2.08;;;;;;;15.86;49.52;98420.44;5002110;28;20038;-67
2021/11/03 08:31:52;;;;;;;8.38;2.25;;;;;;;15.44;51.00;98415.22;5005234;28;20026;-67
2021/11/03 08:34:18;;;;;;;8.38;5.95;;;;;;;16.37;48.13;98424.56;5004722;28;20053;-67
2021/11/03 08:36:45;;;;;;;3.63;1.70;;;;;;;16.22;48.81;98433.94;5000448;28;20070;-67
2021/11/03 08:39:11;;;;;;;5.32;3.00;;;;;;;15.91;49.69;98426.59;4999132;28;20068;-67
2021/11/03 08:41:37;;;;;;;4.95;1.50;;;;;;;16.06;49.15;98430.03;4999106;28;20026;-67
2021/11/03 08:44:03;;;;;;;5.32;1.60;;;;;;;16.19;48.80;98434.56;5005368;28;20075;-68
2021/11/03 08:46:29;;;;;;;5.47;2.72;;;;;;;16.18;48.71;98432.16;4995888;28;20034;-69
2021/11/03 08:48:57;;;;;;;7.10;1.95;;;;;;;16.04;49.94;98435.75;5005432;28;20026;-67
2021/11/03 08:51:27;;;;;;;5.32;2.38;;;;;;;16.27;48.92;98443.88;4994890;28;20087;-66
2021/11/03 08:53:56;;;;;;;6.63;1.90;;;;;;;16.64;48.10;98435.53;5000391;28;20406;-67
2021/11/03 08:56:23;;;;;;;2.53;1.38;;;;;;;16.56;48.32;98447.97;4999362;28;20228;-68
2021/11/03 08:58:49;;;;;;;5.18;1.77;;;;;;;16.09;48.73;98440.28;5003092;28;20065;-67
2021/11/03 09:01:14;;;;;;;3.22;2.80;;;;;;;16.69;47.53;98451.72;5000524;28;20057;-67
2021/11/03 09:03:40;;;;;;;5.05;2.47;;;;;;;15.98;48.73;98445.16;5000369;28;20033;-67
2021/11/03 09:06:07;;;;;;;5.07;1.63;;;;;;;16.00;49.16;98447.56;4994054;28;20038;-67
2021/11/03 09:08:38;;;;;;;4.65;1.30;;;;;;;16.01;48.82;98449.97;4997511;28;20073;-67
2021/11/03 09:11:05;;;;;;;3.13;1.45;;;;;;;16.54;47.74;98455.66;4999480;28;20061;-67
2021/11/03 09:13:32;;;;;;;4.97;1.17;;;;;;;17.04;46.70;98454.53;4998825;28;20042;-67
2021/11/03 09:15:59;;;;;;;7.22;1.35;;;;;;;16.16;48.65;98448.78;4998505;28;20045;-67
2021/11/03 09:18:25;;;;;;;41.50;21.90;;;;;;;16.88;47.15;98464.25;4999366;28;20041;-67
2021/11/03 09:20:53;;;;;;;10.95;4.03;;;;;;;16.49;47.55;98451.16;4999213;28;20029;-67
2021/11/03 09:23:19;;;;;;;3.35;1.08;;;;;;;15.96;48.94;98458.22;5002610;28;20065;-67
2021/11/03 09:25:46;;;;;;;8.10;2.13;;;;;;;17.03;46.96;98452.16;5002316;28;20026;-67
2021/11/03 09:28:12;;;;;;;2.97;0.95;;;;;;;16.16;48.42;98461.53;4997017;28;20031;-67
2021/11/03 09:30:38;;;;;;;2.40;0.93;;;;;;;16.76;47.01;98462.94;4996192;28;20138;-67
2021/11/03 09:33:08;;;;;;;10.77;1.25;;;;;;;16.34;47.45;98474.09;4996956;28;20030;-67
2021/11/03 09:35:40;;;;;;;3.50;1.38;;;;;;;16.80;46.72;98468.56;5002851;28;20052;-67
2021/11/03 09:38:07;;;;;;;6.53;1.40;;;;;;;16.78;46.60;98477.00;5001856;28;20034;-67
2021/11/03 09:40:45;;;;;;;4.57;1.13;;;;;;;16.56;47.37;98477.09;4994536;28;20038;-67
2021/11/03 09:43:40;;;;;;;5.95;2.95;;;;;;;16.22;47.76;98474.69;4995292;28;20034;-67
2021/11/03 09:46:50;;;;;;;7.95;1.45;;;;;;;16.67;46.67;98478.41;5006693;28;20046;-67
2021/11/03 09:49:31;;;;;;;5.03;1.70;;;;;;;17.44;45.38;98485.47;4921000;29;20051;-67
2021/11/03 09:52:28;;;;;;;6.65;0.93;;;;;;;16.24;47.18;98491.47;4926055;29;20545;-67
2021/11/03 09:54:58;;;;;;;4.43;2.38;;;;;;;17.13;46.20;98492.66;4922448;29;20054;-67
2021/11/03 09:57:50;;;;;;;8.70;2.00;;;;;;;16.78;46.75;98496.03;4925393;29;20098;-67
2021/11/03 10:00:41;;;;;;;5.10;2.50;;;;;;;17.33;45.20;98504.06;4925448;29;20502;-67
2021/11/03 10:03:21;;;;;;;11.63;6.75;;;;;;;17.12;45.70;98507.38;4921631;29;20052;-67
2021/11/03 10:05:53;;;;;;;2.97;0.90;;;;;;;16.73;46.36;98500.81;4927528;29;20043;-67
2021/11/03 10:08:24;;;;;;;13.50;8.77;;;;;;;17.12;45.82;98510.88;4921614;29;20135;-67
2021/11/03 10:10:55;;;;;;;1.77;0.70;;;;;;;16.90;46.51;98516.38;4924430;29;20058;-67
2021/11/03 10:13:26;;;;;;;1.63;0.90;;;;;;;16.83;47.20;98506.78;4925451;29;20154;-67
2021/11/03 10:16:02;;;;;;;2.25;1.02;;;;;;;17.30;45.63;98512.84;4927191;29;20032;-68
2021/11/03 10:18:37;;;;;;;6.57;0.88;;;;;;;17.07;45.66;98505.59;4922631;29;20043;-67
2021/11/03 10:21:18;;;;;;;7.20;2.53;;;;;;;17.04;45.34;98513.59;4992525;28;20038;-67
2021/11/03 10:23:55;;;;;;;4.07;0.90;;;;;;;17.49;45.01;98512.53;4991403;28;20041;-67
2021/11/03 10:26:23;;;;;;;2.33;0.82;;;;;;;17.49;44.58;98510.63;5001094;28;20062;-67
2021/11/03 10:28:52;;;;;;;6.50;1.65;;;;;;;15.70;48.19;98517.72;5004577;28;20085;-67
2021/11/03 10:31:31;;;;;;;1.77;1.10;;;;;;;16.35;46.61;98510.25;5002868;28;20080;-67
2021/11/03 10:34:04;;;;;;;2.88;0.98;;;;;;;16.95;45.64;98517.06;5004411;28;20053;-67
2021/11/03 10:36:41;;;;;;;4.53;0.98;;;;;;;16.95;45.78;98527.94;5004333;28;20125;-67
2021/11/03 10:39:20;;;;;;;3.53;2.20;;;;;;;16.44;46.24;98521.13;5003549;28;20422;-67
2021/11/03 10:42:00;;;;;;;4.53;0.80;;;;;;;15.91;47.36;98529.78;5005384;28;20146;-67
2021/11/03 10:44:31;;;;;;;2.70;0.90;;;;;;;16.75;45.73;98531.19;5003108;28;20033;-67
2021/11/03 10:47:08;;;;;;;2.20;1.00;;;;;;;16.14;47.52;98524.34;5010267;28;20103;-67
2021/11/03 10:49:56;;;;;;;1.88;0.95;;;;;;;16.45;46.41;98530.91;5005941;28;20121;-67
2021/11/03 10:52:53;;;;;;;2.97;1.08;;;;;;;16.21;46.47;98523.88;5005189;28;20037;-67
2021/11/03 10:55:24;;;;;;;5.55;0.73;;;;;;;15.97;47.80;98535.88;4994932;28;20069;-67
2021/11/03 10:57:57;;;;;;;2.67;0.70;;;;;;;16.37;46.84;98535.19;5007502;28;20037;-67
2021/11/03 11:00:33;;;;;;;1.37;0.80;;;;;;;16.63;46.29;98540.75;5019970;28;20479;-67
2021/11/03 11:03:01;;;;;;;4.45;1.13;;;;;;;16.90;45.98;98546.31;5000019;28;20026;-67
2021/11/03 11:05:32;;;;;;;3.97;0.93;;;;;;;16.49;46.96;98550.91;5004087;28;20088;-67
2021/11/03 11:08:19;;;;;;;3.17;1.00;;;;;;;16.40;47.27;98550.88;4999163;28;20040;-67
2021/11/03 11:10:51;;;;;;;4.00;1.17;;;;;;;16.89;46.39;98558.28;4998887;28;20026;-67
2021/11/03 11:13:26;;;;;;;6.63;1.38;;;;;;;15.93;47.47;98552.00;4968241;28;20207;-66
2021/11/03 11:16:07;;;;;;;9.95;4.28;;;;;;;15.98;47.58;98555.69;4995647;28;20122;-66
2021/11/03 11:18:43;;;;;;;5.10;0.77;;;;;;;15.66;48.41;98561.75;5005020;28;20038;-66
2021/11/03 11:21:33;;;;;;;3.10;1.08;;;;;;;16.06;47.37;98563.88;5006324;28;20060;-67
2021/11/03 11:24:08;;;;;;;4.10;1.30;;;;;;;15.88;48.54;98554.78;4999719;28;20041;-67
2021/11/03 11:26:38;;;;;;;5.65;1.13;;;;;;;16.70;46.88;98559.34;5000271;28;20125;-66
2021/11/03 11:29:26;;;;;;;4.90;1.23;;;;;;;16.73;46.55;98547.03;4998591;28;20041;-67
2021/11/03 11:32:22;;;;;;;5.15;1.08;;;;;;;16.72;46.32;98559.81;4992658;28;20037;-67
2021/11/03 11:35:17;;;;;;;4.72;1.25;;;;;;;16.81;46.01;98559.88;4992715;28;20096;-67
2021/11/03 11:38:04;;;;;;;1.83;1.00;;;;;;;16.00;46.87;98553.47;5000337;28;20498;-67
2021/11/03 11:40:46;;;;;;;3.53;1.00;;;;;;;16.88;45.45;98551.25;5002109;28;20109;-66